sensor_id;sensor_type;location;lat;lon;timestamp;pressure;altitude;pressure_sealevel;temperature;humidity
5356;BME280;70449;52.486;13.386;2023-06-22T00:01:21;101228.34;;;25.45;100.00
5356;BME280;70449;52.486;13.386;2023-06-22T00:03:49;101228.72;;;25.81;100.00
5356;BME280;70449;52.486;13.386;2023-06-22T00:06:16;101229.69;;;25.58;100.00
5356;BME280;70449;52.486;13.386;2023-06-22T00:08:44;101229.56;;;25.85;100.00
5356;BME280;70449;52.486;13.386;2023-06-22T00:11:11;101231.44;;;25.73;100.00
5356;BME280;70449;52.486;13.386;2023-06-22T00:13:38;101226.47;;;25.97;100.00
5356;BME280;70449;52.486;13.386;2023-06-22T00:16:07;101224.28;;;25.79;100.00
5356;BME280;70449;52.486;13.386;2023-06-22T00:18:34;101239.03;;;25.69;100.00
5356;BME280;70449;52.486;13.386;2023-06-22T00:21:01;101243.88;;;25.39;100.00
5356;BME280;70449;52.486;13.386;2023-06-22T00:23:29;101251.06;;;25.06;100.00
5356;BME280;70449;52.486;13.386;2023-06-22T00:25:59;101256.41;;;25.45;100.00
5356;BME280;70449;52.486;13.386;2023-06-22T00:28:27;101254.78;;;25.44;100.00
5356;BME280;70449;52.486;13.386;2023-06-22T00:30:54;101248.03;;;25.18;100.00
5356;BME280;70449;52.486;13.386;2023-06-22T00:33:26;101254.59;;;25.29;100.00
5356;BME280;70449;52.486;13.386;2023-06-22T00:35:54;101249.94;;;25.41;100.00
5356;BME280;70449;52.486;13.386;2023-06-22T00:38:21;101245.78;;;25.27;100.00
5356;BME280;70449;52.486;13.386;2023-06-22T00:40:48;101251.94;;;25.10;100.00
5356;BME280;70449;52.486;13.386;2023-06-22T00:43:16;101253.28;;;24.89;100.00
5356;BME280;70449;52.486;13.386;2023-06-22T00:45:43;101253.63;;;25.15;100.00
5356;BME280;70449;52.486;13.386;2023-06-22T00:48:12;101253.84;;;25.32;100.00
5356;BME280;70449;52.486;13.386;2023-06-22T00:50:42;101244.25;;;25.33;100.00
5356;BME280;70449;52.486;13.386;2023-06-22T00:53:10;101257.13;;;25.08;100.00
5356;BME280;70449;52.486;13.386;2023-06-22T00:55:39;101256.75;;;25.40;100.00
5356;BME280;70449;52.486;13.386;2023-06-22T00:58:11;101256.84;;;24.86;100.00
5356;BME280;70449;52.486;13.386;2023-06-22T01:00:39;101262.09;;;24.92;100.00
5356;BME280;70449;52.486;13.386;2023-06-22T01:03:07;101260.94;;;24.66;100.00
5356;BME280;70449;52.486;13.386;2023-06-22T01:05:35;101256.72;;;25.09;100.00
5356;BME280;70449;52.486;13.386;2023-06-22T01:08:15;101261.22;;;24.57;100.00
5356;BME280;70449;52.486;13.386;2023-06-22T01:10:48;101264.34;;;25.09;100.00
5356;BME280;70449;52.486;13.386;2023-06-22T01:13:26;101269.16;;;24.82;100.00
5356;BME280;70449;52.486;13.386;2023-06-22T01:16:02;101267.91;;;25.06;100.00
5356;BME280;70449;52.486;13.386;2023-06-22T01:18:31;101274.44;;;25.14;100.00
5356;BME280;70449;52.486;13.386;2023-06-22T01:21:04;101272.22;;;25.00;100.00
5356;BME280;70449;52.486;13.386;2023-06-22T01:23:53;101268.44;;;24.88;100.00
5356;BME280;70449;52.486;13.386;2023-06-22T01:26:35;101266.53;;;24.66;100.00
5356;BME280;70449;52.486;13.386;2023-06-22T01:29:05;101271.41;;;24.23;100.00
5356;BME280;70449;52.486;13.386;2023-06-22T01:31:34;101264.63;;;24.47;100.00
5356;BME280;70449;52.486;13.386;2023-06-22T01:34:05;101271.84;;;24.48;100.00
5356;BME280;70449;52.486;13.386;2023-06-22T01:36:34;101270.28;;;24.51;100.00
5356;BME280;70449;52.486;13.386;2023-06-22T01:39:03;101274.38;;;24.57;100.00
5356;BME280;70449;52.486;13.386;2023-06-22T01:41:36;101280.66;;;24.73;100.00
5356;BME280;70449;52.486;13.386;2023-06-22T01:44:06;101282.59;;;24.69;100.00
5356;BME280;70449;52.486;13.386;2023-06-22T01:46:35;101284.22;;;24.70;100.00
5356;BME280;70449;52.486;13.386;2023-06-22T01:49:03;101287.47;;;24.72;100.00
5356;BME280;70449;52.486;13.386;2023-06-22T01:51:31;101283.13;;;24.52;100.00
5356;BME280;70449;52.486;13.386;2023-06-22T01:53:58;101292.44;;;24.36;100.00
5356;BME280;70449;52.486;13.386;2023-06-22T01:56:26;101289.09;;;24.27;100.00
5356;BME280;70449;52.486;13.386;2023-06-22T01:59:04;101288.19;;;24.42;100.00
5356;BME280;70449;52.486;13.386;2023-06-22T02:01:41;101293.13;;;24.76;100.00
5356;BME280;70449;52.486;13.386;2023-06-22T02:04:17;101289.00;;;24.43;100.00
5356;BME280;70449;52.486;13.386;2023-06-22T02:06:47;101279.31;;;24.40;100.00
5356;BME280;70449;52.486;13.386;2023-06-22T02:09:19;101279.31;;;23.94;100.00
5356;BME280;70449;52.486;13.386;2023-06-22T02:11:48;101286.38;;;24.08;100.00
5356;BME280;70449;52.486;13.386;2023-06-22T02:14:20;101282.84;;;23.91;100.00
5356;BME280;70449;52.486;13.386;2023-06-22T02:16:50;101286.47;;;24.15;100.00
5356;BME280;70449;52.486;13.386;2023-06-22T02:19:23;101294.06;;;24.14;100.00
5356;BME280;70449;52.486;13.386;2023-06-22T02:21:51;101303.78;;;23.97;100.00
5356;BME280;70449;52.486;13.386;2023-06-22T02:24:18;101306.09;;;24.15;100.00
5356;BME280;70449;52.486;13.386;2023-06-22T02:26:49;101302.78;;;24.32;100.00
5356;BME280;70449;52.486;13.386;2023-06-22T02:29:17;101313.88;;;24.25;100.00
5356;BME280;70449;52.486;13.386;2023-06-22T02:31:44;101309.53;;;24.51;100.00
5356;BME280;70449;52.486;13.386;2023-06-22T02:34:13;101306.53;;;24.17;100.00
5356;BME280;70449;52.486;13.386;2023-06-22T02:36:44;101314.09;;;24.39;100.00
5356;BME280;70449;52.486;13.386;2023-06-22T02:39:18;101305.22;;;24.34;100.00
5356;BME280;70449;52.486;13.386;2023-06-22T02:41:46;101301.53;;;24.30;100.00
5356;BME280;70449;52.486;13.386;2023-06-22T02:44:13;101299.97;;;24.09;100.00
5356;BME280;70449;52.486;13.386;2023-06-22T02:46:42;101301.91;;;24.05;100.00
5356;BME280;70449;52.486;13.386;2023-06-22T02:49:09;101309.84;;;24.23;100.00
5356;BME280;70449;52.486;13.386;2023-06-22T02:51:46;101302.44;;;24.11;100.00
5356;BME280;70449;52.486;13.386;2023-06-22T02:54:13;101300.44;;;24.34;100.00
5356;BME280;70449;52.486;13.386;2023-06-22T02:56:41;101293.53;;;24.51;100.00
5356;BME280;70449;52.486;13.386;2023-06-22T02:59:10;101303.59;;;24.56;100.00
5356;BME280;70449;52.486;13.386;2023-06-22T03:01:37;101295.69;;;24.38;100.00
5356;BME280;70449;52.486;13.386;2023-06-22T03:04:07;101295.44;;;24.24;100.00
5356;BME280;70449;52.486;13.386;2023-06-22T03:06:34;101301.53;;;24.30;100.00
5356;BME280;70449;52.486;13.386;2023-06-22T03:09:04;101293.88;;;24.04;100.00
5356;BME280;70449;52.486;13.386;2023-06-22T03:11:32;101302.84;;;24.36;100.00
5356;BME280;70449;52.486;13.386;2023-06-22T03:14:01;101302.91;;;24.39;100.00
5356;BME280;70449;52.486;13.386;2023-06-22T03:16:28;101306.84;;;24.58;100.00
5356;BME280;70449;52.486;13.386;2023-06-22T03:18:56;101301.19;;;24.31;100.00
5356;BME280;70449;52.486;13.386;2023-06-22T03:21:25;101294.09;;;24.60;100.00
5356;BME280;70449;52.486;13.386;2023-06-22T03:23:54;101293.97;;;24.53;100.00
5356;BME280;70449;52.486;13.386;2023-06-22T03:26:23;101298.31;;;24.51;100.00
5356;BME280;70449;52.486;13.386;2023-06-22T03:28:52;101300.22;;;24.70;100.00
5356;BME280;70449;52.486;13.386;2023-06-22T03:31:20;101300.28;;;24.73;100.00
5356;BME280;70449;52.486;13.386;2023-06-22T03:33:47;101304.81;;;24.55;100.00
5356;BME280;70449;52.486;13.386;2023-06-22T03:36:18;101299.00;;;24.44;100.00
5356;BME280;70449;52.486;13.386;2023-06-22T03:38:46;101307.41;;;24.67;100.00
5356;BME280;70449;52.486;13.386;2023-06-22T03:41:13;101304.81;;;24.81;100.00
5356;BME280;70449;52.486;13.386;2023-06-22T03:43:42;101301.88;;;24.48;100.00
5356;BME280;70449;52.486;13.386;2023-06-22T03:46:11;101308.94;;;24.64;100.00
5356;BME280;70449;52.486;13.386;2023-06-22T03:48:38;101295.50;;;24.51;100.00
5356;BME280;70449;52.486;13.386;2023-06-22T03:51:07;101290.13;;;24.65;100.00
5356;BME280;70449;52.486;13.386;2023-06-22T03:53:34;101298.44;;;24.35;100.00
5356;BME280;70449;52.486;13.386;2023-06-22T03:56:01;101295.56;;;24.31;100.00
5356;BME280;70449;52.486;13.386;2023-06-22T03:58:28;101295.31;;;24.17;100.00
5356;BME280;70449;52.486;13.386;2023-06-22T04:00:59;101299.94;;;24.52;100.00
5356;BME280;70449;52.486;13.386;2023-06-22T04:03:27;101300.38;;;24.80;100.00
5356;BME280;70449;52.486;13.386;2023-06-22T04:05:54;101306.47;;;24.59;100.00
5356;BME280;70449;52.486;13.386;2023-06-22T04:08:21;101312.16;;;24.63;100.00
5356;BME280;70449;52.486;13.386;2023-06-22T04:10:48;101313.22;;;24.81;100.00
5356;BME280;70449;52.486;13.386;2023-06-22T04:13:16;101311.25;;;24.13;100.00
5356;BME280;70449;52.486;13.386;2023-06-22T04:15:44;101315.31;;;24.61;100.00
5356;BME280;70449;52.486;13.386;2023-06-22T04:18:13;101316.50;;;24.37;100.00
5356;BME280;70449;52.486;13.386;2023-06-22T04:20:40;101304.00;;;24.54;100.00
5356;BME280;70449;52.486;13.386;2023-06-22T04:23:07;101314.72;;;24.49;100.00
5356;BME280;70449;52.486;13.386;2023-06-22T04:25:34;101331.31;;;24.61;100.00
5356;BME280;70449;52.486;13.386;2023-06-22T04:28:02;101326.84;;;24.56;100.00
5356;BME280;70449;52.486;13.386;2023-06-22T04:30:30;101333.31;;;24.37;100.00
5356;BME280;70449;52.486;13.386;2023-06-22T04:32:58;101333.91;;;24.27;100.00
5356;BME280;70449;52.486;13.386;2023-06-22T04:35:27;101328.75;;;24.29;100.00
5356;BME280;70449;52.486;13.386;2023-06-22T04:37:58;101334.25;;;24.45;100.00
5356;BME280;70449;52.486;13.386;2023-06-22T04:40:29;101325.19;;;24.78;100.00
5356;BME280;70449;52.486;13.386;2023-06-22T04:42:56;101334.94;;;24.88;100.00
5356;BME280;70449;52.486;13.386;2023-06-22T04:45:28;101345.81;;;25.16;100.00
5356;BME280;70449;52.486;13.386;2023-06-22T04:47:55;101344.19;;;25.15;100.00
5356;BME280;70449;52.486;13.386;2023-06-22T04:50:26;101336.84;;;25.07;100.00
5356;BME280;70449;52.486;13.386;2023-06-22T04:52:53;101337.06;;;25.21;100.00
5356;BME280;70449;52.486;13.386;2023-06-22T04:55:24;101336.84;;;25.07;100.00
5356;BME280;70449;52.486;13.386;2023-06-22T04:57:57;101341.63;;;25.06;100.00
5356;BME280;70449;52.486;13.386;2023-06-22T05:00:34;101336.84;;;25.07;100.00
5356;BME280;70449;52.486;13.386;2023-06-22T05:03:02;101345.59;;;25.02;100.00
5356;BME280;70449;52.486;13.386;2023-06-22T05:05:31;101337.69;;;25.38;100.00
5356;BME280;70449;52.486;13.386;2023-06-22T05:08:00;101332.94;;;25.75;100.00
5356;BME280;70449;52.486;13.386;2023-06-22T05:10:28;101336.91;;;25.10;100.00
5356;BME280;70449;52.486;13.386;2023-06-22T05:12:55;101332.38;;;25.29;100.00
5356;BME280;70449;52.486;13.386;2023-06-22T05:15:23;101335.50;;;25.24;100.00
5356;BME280;70449;52.486;13.386;2023-06-22T05:17:54;101332.94;;;25.42;100.00
5356;BME280;70449;52.486;13.386;2023-06-22T05:20:21;101337.56;;;25.57;100.00
5356;BME280;70449;52.486;13.386;2023-06-22T05:22:51;101334.88;;;26.01;100.00
5356;BME280;70449;52.486;13.386;2023-06-22T05:25:19;101334.06;;;26.01;100.00
5356;BME280;70449;52.486;13.386;2023-06-22T05:27:46;101341.91;;;25.85;100.00
5356;BME280;70449;52.486;13.386;2023-06-22T05:30:14;101341.56;;;25.90;100.00
5356;BME280;70449;52.486;13.386;2023-06-22T05:32:42;101349.44;;;25.47;100.00
5356;BME280;70449;52.486;13.386;2023-06-22T05:35:12;101342.19;;;26.10;100.00
5356;BME280;70449;52.486;13.386;2023-06-22T05:37:51;101347.06;;;25.49;100.00
5356;BME280;70449;52.486;13.386;2023-06-22T05:40:18;101341.19;;;25.27;100.00
5356;BME280;70449;52.486;13.386;2023-06-22T05:42:45;101349.28;;;26.00;100.00
5356;BME280;70449;52.486;13.386;2023-06-22T05:45:12;101347.66;;;25.95;100.00
5356;BME280;70449;52.486;13.386;2023-06-22T05:47:40;101355.50;;;25.83;100.00
5356;BME280;70449;52.486;13.386;2023-06-22T05:50:09;101355.78;;;26.04;100.00
5356;BME280;70449;52.486;13.386;2023-06-22T05:52:36;101362.41;;;25.59;100.00
5356;BME280;70449;52.486;13.386;2023-06-22T05:55:06;101372.16;;;25.98;100.00
5356;BME280;70449;52.486;13.386;2023-06-22T05:57:33;101364.59;;;26.06;100.00
5356;BME280;70449;52.486;13.386;2023-06-22T06:00:00;101368.25;;;26.07;100.00
5356;BME280;70449;52.486;13.386;2023-06-22T06:02:33;101361.03;;;25.75;100.00
5356;BME280;70449;52.486;13.386;2023-06-22T06:05:01;101360.31;;;26.53;100.00
5356;BME280;70449;52.486;13.386;2023-06-22T06:07:29;101364.38;;;26.59;100.00
5356;BME280;70449;52.486;13.386;2023-06-22T06:09:56;101364.69;;;26.13;100.00
5356;BME280;70449;52.486;13.386;2023-06-22T06:12:25;101367.09;;;26.15;100.00
5356;BME280;70449;52.486;13.386;2023-06-22T06:14:52;101360.06;;;26.32;100.00
5356;BME280;70449;52.486;13.386;2023-06-22T06:17:21;101356.34;;;26.61;100.00
5356;BME280;70449;52.486;13.386;2023-06-22T06:19:48;101349.38;;;26.96;100.00
5356;BME280;70449;52.486;13.386;2023-06-22T06:22:15;101342.91;;;26.44;100.00
5356;BME280;70449;52.486;13.386;2023-06-22T06:24:42;101353.75;;;26.42;100.00
5356;BME280;70449;52.486;13.386;2023-06-22T06:27:09;101346.00;;;26.73;100.00
5356;BME280;70449;52.486;13.386;2023-06-22T06:29:38;101348.94;;;26.46;100.00
5356;BME280;70449;52.486;13.386;2023-06-22T06:32:06;101364.84;;;26.28;100.00
5356;BME280;70449;52.486;13.386;2023-06-22T06:34:34;101364.50;;;26.74;100.00
5356;BME280;70449;52.486;13.386;2023-06-22T06:37:02;101365.16;;;26.56;100.00
5356;BME280;70449;52.486;13.386;2023-06-22T06:39:30;101368.59;;;26.87;100.00
5356;BME280;70449;52.486;13.386;2023-06-22T06:41:57;101368.06;;;27.26;100.00
5356;BME280;70449;52.486;13.386;2023-06-22T06:44:24;101371.09;;;26.99;100.00
5356;BME280;70449;52.486;13.386;2023-06-22T06:46:52;101367.28;;;27.25;100.00
5356;BME280;70449;52.486;13.386;2023-06-22T06:49:20;101363.94;;;27.09;100.00
5356;BME280;70449;52.486;13.386;2023-06-22T06:51:47;101358.56;;;27.48;100.00
5356;BME280;70449;52.486;13.386;2023-06-22T06:54:14;101361.44;;;27.70;100.00
5356;BME280;70449;52.486;13.386;2023-06-22T06:56:41;101348.84;;;27.35;100.00
5356;BME280;70449;52.486;13.386;2023-06-22T06:59:10;101356.88;;;27.33;100.00
5356;BME280;70449;52.486;13.386;2023-06-22T07:01:37;101356.81;;;27.26;100.00
5356;BME280;70449;52.486;13.386;2023-06-22T07:04:06;101353.09;;;27.84;100.00
5356;BME280;70449;52.486;13.386;2023-06-22T07:06:33;101346.66;;;27.84;100.00
5356;BME280;70449;52.486;13.386;2023-06-22T07:09:01;101343.03;;;27.83;100.00
5356;BME280;70449;52.486;13.386;2023-06-22T07:11:29;101336.25;;;28.06;100.00
5356;BME280;70449;52.486;13.386;2023-06-22T07:13:56;101333.00;;;27.96;100.00
5356;BME280;70449;52.486;13.386;2023-06-22T07:16:23;101318.56;;;28.80;100.00
5356;BME280;70449;52.486;13.386;2023-06-22T07:18:52;101317.75;;;28.69;98.98
5356;BME280;70449;52.486;13.386;2023-06-22T07:21:20;101321.81;;;28.79;97.14
5356;BME280;70449;52.486;13.386;2023-06-22T07:23:48;101328.63;;;29.03;95.60
5356;BME280;70449;52.486;13.386;2023-06-22T07:26:15;101316.94;;;28.93;96.49
5356;BME280;70449;52.486;13.386;2023-06-22T07:28:42;101323.41;;;28.30;95.56
5356;BME280;70449;52.486;13.386;2023-06-22T07:31:10;101311.34;;;28.54;95.25
5356;BME280;70449;52.486;13.386;2023-06-22T07:33:37;101318.56;;;28.87;92.07
5356;BME280;70449;52.486;13.386;2023-06-22T07:36:05;101310.47;;;28.97;89.04
5356;BME280;70449;52.486;13.386;2023-06-22T07:38:35;101309.47;;;29.57;83.49
5356;BME280;70449;52.486;13.386;2023-06-22T07:41:03;101304.84;;;28.89;89.96
5356;BME280;70449;52.486;13.386;2023-06-22T07:43:31;101303.09;;;29.46;84.92
5356;BME280;70449;52.486;13.386;2023-06-22T07:46:00;101312.09;;;28.87;85.51
5356;BME280;70449;52.486;13.386;2023-06-22T07:48:27;101310.50;;;28.32;90.43
5356;BME280;70449;52.486;13.386;2023-06-22T07:50:54;101318.47;;;29.27;88.60
5356;BME280;70449;52.486;13.386;2023-06-22T07:53:22;101307.06;;;29.59;82.59
5356;BME280;70449;52.486;13.386;2023-06-22T07:55:51;101307.66;;;28.97;84.83
5356;BME280;70449;52.486;13.386;2023-06-22T07:58:18;101304.03;;;28.96;85.07
5356;BME280;70449;52.486;13.386;2023-06-22T08:00:47;101297.56;;;29.06;81.83
5356;BME280;70449;52.486;13.386;2023-06-22T08:03:15;101304.81;;;29.14;77.87
5356;BME280;70449;52.486;13.386;2023-06-22T08:05:42;101306.44;;;29.08;78.44
5356;BME280;70449;52.486;13.386;2023-06-22T08:08:09;101308.44;;;29.01;78.95
5356;BME280;70449;52.486;13.386;2023-06-22T08:10:37;101308.09;;;28.84;79.08
5356;BME280;70449;52.486;13.386;2023-06-22T08:13:06;101306.09;;;28.81;81.14
5356;BME280;70449;52.486;13.386;2023-06-22T08:15:35;101307.78;;;29.77;76.32
5356;BME280;70449;52.486;13.386;2023-06-22T08:18:03;101313.31;;;29.04;72.63
5356;BME280;70449;52.486;13.386;2023-06-22T08:20:30;101309.56;;;29.43;68.09
5356;BME280;70449;52.486;13.386;2023-06-22T08:22:58;101310.47;;;29.04;70.35
5356;BME280;70449;52.486;13.386;2023-06-22T08:25:31;101309.72;;;28.67;76.09
5356;BME280;70449;52.486;13.386;2023-06-22T08:27:58;101306.47;;;28.83;78.90
5356;BME280;70449;52.486;13.386;2023-06-22T08:30:27;101309.63;;;29.21;71.67
5356;BME280;70449;52.486;13.386;2023-06-22T08:32:55;101308.75;;;29.46;68.25
5356;BME280;70449;52.486;13.386;2023-06-22T08:35:23;101303.75;;;29.78;67.43
5356;BME280;70449;52.486;13.386;2023-06-22T08:37:50;101306.94;;;29.80;69.60
5356;BME280;70449;52.486;13.386;2023-06-22T08:40:21;101299.00;;;29.54;71.11
5356;BME280;70449;52.486;13.386;2023-06-22T08:42:49;101300.47;;;29.83;70.97
5356;BME280;70449;52.486;13.386;2023-06-22T08:45:17;101301.09;;;30.16;67.29
5356;BME280;70449;52.486;13.386;2023-06-22T08:47:45;101301.88;;;29.43;74.86
5356;BME280;70449;52.486;13.386;2023-06-22T08:50:13;101310.09;;;29.97;71.74
5356;BME280;70449;52.486;13.386;2023-06-22T08:52:40;101303.63;;;30.00;75.27
5356;BME280;70449;52.486;13.386;2023-06-22T08:55:08;101305.22;;;30.01;75.53
5356;BME280;70449;52.486;13.386;2023-06-22T08:57:36;101306.84;;;30.02;75.67
5356;BME280;70449;52.486;13.386;2023-06-22T09:00:06;101310.19;;;29.82;73.61
5356;BME280;70449;52.486;13.386;2023-06-22T09:02:41;101309.78;;;29.84;70.53
5356;BME280;70449;52.486;13.386;2023-06-22T09:05:10;101309.31;;;29.89;70.63
5356;BME280;70449;52.486;13.386;2023-06-22T09:07:37;101295.13;;;30.00;65.75
5356;BME280;70449;52.486;13.386;2023-06-22T09:10:06;101297.66;;;30.43;63.09
5356;BME280;70449;52.486;13.386;2023-06-22T09:12:33;101294.00;;;30.46;58.12
5356;BME280;70449;52.486;13.386;2023-06-22T09:15:04;101296.44;;;30.44;56.21
5356;BME280;70449;52.486;13.386;2023-06-22T09:17:33;101293.00;;;30.22;54.81
5356;BME280;70449;52.486;13.386;2023-06-22T09:20:02;101297.91;;;30.59;54.88
5356;BME280;70449;52.486;13.386;2023-06-22T09:22:33;101291.34;;;30.69;53.80
5356;BME280;70449;52.486;13.386;2023-06-22T09:25:00;101291.59;;;30.86;54.67
5356;BME280;70449;52.486;13.386;2023-06-22T09:27:28;101294.06;;;31.22;52.12
5356;BME280;70449;52.486;13.386;2023-06-22T09:29:56;101286.16;;;30.64;54.94
5356;BME280;70449;52.486;13.386;2023-06-22T09:32:24;101295.25;;;30.41;57.59
5356;BME280;70449;52.486;13.386;2023-06-22T09:34:51;101288.06;;;30.75;54.82
5356;BME280;70449;52.486;13.386;2023-06-22T09:37:19;101280.06;;;31.07;52.67
5356;BME280;70449;52.486;13.386;2023-06-22T09:39:48;101281.13;;;30.83;53.33
5356;BME280;70449;52.486;13.386;2023-06-22T09:42:15;101281.28;;;31.06;52.19
5356;BME280;70449;52.486;13.386;2023-06-22T09:44:42;101277.88;;;30.84;52.39
5356;BME280;70449;52.486;13.386;2023-06-22T09:47:09;101283.75;;;31.04;50.35
5356;BME280;70449;52.486;13.386;2023-06-22T09:49:37;101288.69;;;31.31;48.84
5356;BME280;70449;52.486;13.386;2023-06-22T09:52:05;101274.47;;;31.00;49.63
5356;BME280;70449;52.486;13.386;2023-06-22T09:54:32;101278.38;;;31.13;48.88
5356;BME280;70449;52.486;13.386;2023-06-22T09:57:01;101270.97;;;31.23;48.45
5356;BME280;70449;52.486;13.386;2023-06-22T09:59:28;101271.00;;;31.20;50.11
5356;BME280;70449;52.486;13.386;2023-06-22T10:01:56;101273.69;;;30.58;52.88
5356;BME280;70449;52.486;13.386;2023-06-22T10:04:23;101282.09;;;31.41;50.84
5356;BME280;70449;52.486;13.386;2023-06-22T10:06:51;101274.56;;;30.93;53.46
5356;BME280;70449;52.486;13.386;2023-06-22T10:09:18;101283.00;;;30.55;54.58
5356;BME280;70449;52.486;13.386;2023-06-22T10:11:47;101279.69;;;31.39;51.67
5356;BME280;70449;52.486;13.386;2023-06-22T10:14:16;101282.34;;;31.20;51.59
5356;BME280;70449;52.486;13.386;2023-06-22T10:16:43;101280.19;;;31.31;52.04
5356;BME280;70449;52.486;13.386;2023-06-22T10:19:10;101276.41;;;31.72;50.31
5356;BME280;70449;52.486;13.386;2023-06-22T10:21:37;101274.91;;;31.94;49.40
5356;BME280;70449;52.486;13.386;2023-06-22T10:24:05;101273.94;;;32.04;48.58
5356;BME280;70449;52.486;13.386;2023-06-22T10:26:33;101265.00;;;32.06;48.28
5356;BME280;70449;52.486;13.386;2023-06-22T10:29:00;101265.81;;;32.30;48.58
5356;BME280;70449;52.486;13.386;2023-06-22T10:31:29;101269.94;;;31.71;50.33
5356;BME280;70449;52.486;13.386;2023-06-22T10:33:56;101267.53;;;32.24;49.18
5356;BME280;70449;52.486;13.386;2023-06-22T10:36:24;101257.66;;;32.56;47.14
5356;BME280;70449;52.486;13.386;2023-06-22T10:38:51;101244.28;;;32.33;46.47
5356;BME280;70449;52.486;13.386;2023-06-22T10:41:19;101253.75;;;31.72;47.29
5356;BME280;70449;52.486;13.386;2023-06-22T10:43:46;101247.19;;;32.52;46.94
5356;BME280;70449;52.486;13.386;2023-06-22T10:46:13;101257.16;;;32.37;44.94
5356;BME280;70449;52.486;13.386;2023-06-22T10:48:42;101249.25;;;33.15;42.43
5356;BME280;70449;52.486;13.386;2023-06-22T10:51:09;101244.16;;;32.40;43.08
5356;BME280;70449;52.486;13.386;2023-06-22T10:53:36;101239.06;;;32.55;42.80
5356;BME280;70449;52.486;13.386;2023-06-22T10:56:04;101236.06;;;32.15;45.47
5356;BME280;70449;52.486;13.386;2023-06-22T10:58:31;101238.56;;;32.36;44.78
5356;BME280;70449;52.486;13.386;2023-06-22T11:00:59;101235.88;;;32.92;45.08
5356;BME280;70449;52.486;13.386;2023-06-22T11:03:29;101228.56;;;32.04;47.33
5356;BME280;70449;52.486;13.386;2023-06-22T11:05:57;101224.00;;;32.34;47.19
5356;BME280;70449;52.486;13.386;2023-06-22T11:08:25;101224.97;;;33.11;44.70
5356;BME280;70449;52.486;13.386;2023-06-22T11:10:52;101217.34;;;31.97;45.89
5356;BME280;70449;52.486;13.386;2023-06-22T11:13:19;101222.50;;;32.26;44.89
5356;BME280;70449;52.486;13.386;2023-06-22T11:15:46;101223.34;;;32.70;43.91
5356;BME280;70449;52.486;13.386;2023-06-22T11:18:14;101225.03;;;33.27;41.64
5356;BME280;70449;52.486;13.386;2023-06-22T11:20:41;101215.16;;;33.15;40.99
5356;BME280;70449;52.486;13.386;2023-06-22T11:23:10;101221.06;;;33.05;43.24
5356;BME280;70449;52.486;13.386;2023-06-22T11:25:38;101199.47;;;33.27;41.87
5356;BME280;70449;52.486;13.386;2023-06-22T11:28:07;101204.34;;;32.87;42.00
5356;BME280;70449;52.486;13.386;2023-06-22T11:30:35;101200.09;;;33.71;39.87
5356;BME280;70449;52.486;13.386;2023-06-22T11:33:02;101194.97;;;33.82;40.48
5356;BME280;70449;52.486;13.386;2023-06-22T11:35:29;101188.66;;;33.38;40.88
5356;BME280;70449;52.486;13.386;2023-06-22T11:37:56;101194.00;;;33.00;41.85
5356;BME280;70449;52.486;13.386;2023-06-22T11:40:25;101198.78;;;33.23;41.57
5356;BME280;70449;52.486;13.386;2023-06-22T11:42:52;101188.41;;;32.93;42.06
5356;BME280;70449;52.486;13.386;2023-06-22T11:45:20;101189.06;;;32.81;41.29
5356;BME280;70449;52.486;13.386;2023-06-22T11:47:47;101198.06;;;33.55;39.87
5356;BME280;70449;52.486;13.386;2023-06-22T11:50:15;101204.38;;;33.07;41.28
5356;BME280;70449;52.486;13.386;2023-06-22T11:52:42;101206.78;;;33.45;40.45
5356;BME280;70449;52.486;13.386;2023-06-22T11:55:09;101211.72;;;33.24;40.49
5356;BME280;70449;52.486;13.386;2023-06-22T11:57:53;101208.56;;;32.79;41.37
5356;BME280;70449;52.486;13.386;2023-06-22T12:00:21;101197.88;;;33.62;39.58
5356;BME280;70449;52.486;13.386;2023-06-22T12:02:50;101203.84;;;33.68;39.46
5356;BME280;70449;52.486;13.386;2023-06-22T12:05:19;101196.31;;;33.41;39.78
5356;BME280;70449;52.486;13.386;2023-06-22T12:07:47;101191.56;;;33.71;38.90
5356;BME280;70449;52.486;13.386;2023-06-22T12:10:15;101188.38;;;33.85;38.67
5356;BME280;70449;52.486;13.386;2023-06-22T12:12:43;101190.41;;;33.69;39.66
5356;BME280;70449;52.486;13.386;2023-06-22T12:15:11;101178.44;;;33.94;39.71
5356;BME280;70449;52.486;13.386;2023-06-22T12:17:38;101176.69;;;33.11;39.97
5356;BME280;70449;52.486;13.386;2023-06-22T12:20:07;101176.81;;;33.60;39.92
5356;BME280;70449;52.486;13.386;2023-06-22T12:22:35;101179.06;;;33.32;41.00
5356;BME280;70449;52.486;13.386;2023-06-22T12:25:04;101169.22;;;34.06;39.26
5356;BME280;70449;52.486;13.386;2023-06-22T12:27:31;101151.94;;;33.80;38.15
5356;BME280;70449;52.486;13.386;2023-06-22T12:30:00;101152.47;;;33.92;39.06
5356;BME280;70449;52.486;13.386;2023-06-22T12:32:27;101159.53;;;34.91;37.60
5356;BME280;70449;52.486;13.386;2023-06-22T12:34:55;101154.63;;;34.20;38.18
5356;BME280;70449;52.486;13.386;2023-06-22T12:37:23;101151.16;;;34.13;37.63
5356;BME280;70449;52.486;13.386;2023-06-22T12:39:50;101145.00;;;34.60;36.89
5356;BME280;70449;52.486;13.386;2023-06-22T12:42:18;101145.03;;;35.40;35.90
5356;BME280;70449;52.486;13.386;2023-06-22T12:44:45;101141.16;;;35.59;35.43
5356;BME280;70449;52.486;13.386;2023-06-22T12:47:13;101137.22;;;33.85;37.78
5356;BME280;70449;52.486;13.386;2023-06-22T12:49:41;101132.78;;;34.88;35.72
5356;BME280;70449;52.486;13.386;2023-06-22T12:52:11;101127.63;;;34.54;37.43